createdAt,value
2017-12-20T00:01:03.513Z,1031.72
2017-12-20T00:02:12.620Z,1031.67
2017-12-20T00:03:21.449Z,1031.67
2017-12-20T00:04:30.530Z,1031.67
2017-12-20T00:05:39.357Z,1031.61
2017-12-20T00:06:48.185Z,1031.64
2017-12-20T00:07:57.014Z,1031.66
2017-12-20T00:09:05.841Z,1031.62
2017-12-20T00:10:14.918Z,1031.68
2017-12-20T00:11:23.747Z,1031.65
2017-12-20T00:12:32.577Z,1031.67
2017-12-20T00:13:41.406Z,1031.68
2017-12-20T00:14:50.233Z,1031.66
2017-12-20T00:15:59.211Z,1031.64
2017-12-20T00:17:08.039Z,1031.66
2017-12-20T00:18:16.869Z,1031.62
2017-12-20T00:19:25.698Z,1031.56
2017-12-20T00:20:34.527Z,1031.61
2017-12-20T00:21:43.354Z,1031.59
2017-12-20T00:22:52.183Z,1031.62
2017-12-20T00:24:01.010Z,1031.6
2017-12-20T00:25:09.838Z,1031.57
2017-12-20T00:26:18.669Z,1031.64
2017-12-20T00:27:27.697Z,1031.58
2017-12-20T00:28:36.526Z,1031.64
2017-12-20T00:29:45.352Z,1031.58
2017-12-20T00:30:54.179Z,1031.59
2017-12-20T00:32:03.281Z,1031.64
2017-12-20T00:33:12.545Z,1031.66
2017-12-20T00:34:21.372Z,1031.65
2017-12-20T00:35:30.200Z,1031.61
2017-12-20T00:36:39.030Z,1031.63
2017-12-20T00:37:47.859Z,1031.63
2017-12-20T00:38:56.935Z,1031.64
2017-12-20T00:40:05.763Z,1031.65
2017-12-20T00:41:14.593Z,1031.57
2017-12-20T00:42:23.420Z,1031.61
2017-12-20T00:43:32.250Z,1031.56
2017-12-20T00:44:41.328Z,1031.56
2017-12-20T00:45:50.154Z,1031.59
2017-12-20T00:46:58.983Z,1031.57
2017-12-20T00:48:07.811Z,1031.57
2017-12-20T00:49:16.639Z,1031.61
2017-12-20T00:50:25.767Z,1031.61
2017-12-20T00:51:34.868Z,1031.61
2017-12-20T00:52:43.696Z,1031.63
2017-12-20T00:53:52.624Z,1031.67
2017-12-20T00:55:01.454Z,1031.61
2017-12-20T00:56:10.277Z,1031.62
2017-12-20T00:57:19.112Z,1031.63
2017-12-20T00:58:27.941Z,1031.62
2017-12-20T00:59:36.770Z,1031.64
2017-12-20T01:00:45.597Z,1031.63
2017-12-20T01:01:54.574Z,1031.69
2017-12-20T01:03:03.400Z,1031.67
2017-12-20T01:04:12.503Z,1031.71
2017-12-20T01:05:21.337Z,1031.67
2017-12-20T01:06:30.159Z,1031.67
2017-12-20T01:07:38.986Z,1031.67
2017-12-20T01:08:47.816Z,1031.67
2017-12-20T01:09:56.644Z,1031.63
2017-12-20T01:11:05.470Z,1031.64
2017-12-20T01:12:14.299Z,1031.65
2017-12-20T01:13:23.175Z,1031.65
2017-12-20T01:14:32.004Z,1031.64
2017-12-20T01:15:40.833Z,1031.64
2017-12-20T01:16:49.663Z,1031.63
2017-12-20T01:17:58.490Z,1031.62
2017-12-20T01:19:07.320Z,1031.6
2017-12-20T01:20:16.148Z,1031.57
2017-12-20T01:21:24.978Z,1031.57
2017-12-20T01:22:33.805Z,1031.56
2017-12-20T01:23:42.638Z,1031.57
2017-12-20T01:24:52.440Z,1031.53
2017-12-20T01:26:01.319Z,1031.5
2017-12-20T01:27:10.149Z,1031.53
2017-12-20T01:28:18.980Z,1031.53
2017-12-20T01:29:27.807Z,1031.49
2017-12-20T01:30:36.737Z,1031.5
2017-12-20T01:31:45.564Z,1031.53
2017-12-20T01:32:54.391Z,1031.49
2017-12-20T01:34:03.220Z,1031.45
2017-12-20T01:35:12.319Z,1031.49
2017-12-20T01:36:21.448Z,1031.49
2017-12-20T01:37:30.274Z,1031.42
2017-12-20T01:38:39.103Z,1031.42
2017-12-20T01:39:47.930Z,1031.48
2017-12-20T01:40:56.756Z,1031.42
2017-12-20T01:42:05.638Z,1031.53
2017-12-20T01:43:15.015Z,1031.51
2017-12-20T01:44:23.846Z,1031.49
2017-12-20T01:45:32.675Z,1031.55
2017-12-20T01:46:41.505Z,1031.53
2017-12-20T01:47:50.435Z,1031.59
2017-12-20T01:48:59.262Z,1031.6
2017-12-20T01:50:08.087Z,1031.6
2017-12-20T01:51:16.915Z,1031.61
2017-12-20T01:52:25.742Z,1031.63
2017-12-20T01:53:34.871Z,1031.65
2017-12-20T01:54:43.700Z,1031.67
2017-12-20T01:55:52.526Z,1031.64
2017-12-20T01:57:01.356Z,1031.68
2017-12-20T01:58:10.185Z,1031.67
2017-12-20T01:59:19.414Z,1031.61
2017-12-20T02:00:28.245Z,1031.6
2017-12-20T02:01:37.075Z,1031.62
2017-12-20T02:02:45.899Z,1031.62
2017-12-20T02:03:54.728Z,1031.59
2017-12-20T02:05:03.839Z,1031.55
2017-12-20T02:06:12.941Z,1031.58
2017-12-20T02:07:21.770Z,1031.55
2017-12-20T02:08:30.601Z,1031.56
2017-12-20T02:09:39.702Z,1031.6
2017-12-20T02:10:48.932Z,1031.59
2017-12-20T02:11:57.759Z,1031.63
2017-12-20T02:13:06.587Z,1031.59
2017-12-20T02:14:15.695Z,1031.64
2017-12-20T02:15:24.522Z,1031.67
2017-12-20T02:16:33.448Z,1031.68
2017-12-20T02:17:42.284Z,1031.67
2017-12-20T02:18:51.666Z,1031.69
2017-12-20T02:20:00.493Z,1031.63
2017-12-20T02:21:09.321Z,1031.64
2017-12-20T02:22:18.448Z,1031.65
2017-12-20T02:23:27.276Z,1031.67
2017-12-20T02:24:36.106Z,1031.68
2017-12-20T02:25:44.933Z,1031.67
2017-12-20T02:26:54.033Z,1031.62
2017-12-20T02:28:03.261Z,1031.67
2017-12-20T02:29:12.097Z,1031.64
2017-12-20T02:30:20.921Z,1031.64
2017-12-20T02:31:30.022Z,1031.64
2017-12-20T02:32:38.849Z,1031.68
2017-12-20T02:33:47.878Z,1031.67
2017-12-20T02:34:57.270Z,1031.67
2017-12-20T02:36:06.372Z,1031.64
2017-12-20T02:37:15.199Z,1031.62
2017-12-20T02:38:24.030Z,1031.63
2017-12-20T02:39:33.340Z,1031.65
2017-12-20T02:40:42.171Z,1031.68
2017-12-20T02:41:51.276Z,1031.72
2017-12-20T02:43:00.353Z,1031.73
2017-12-20T02:44:09.183Z,1031.74
2017-12-20T02:45:18.057Z,1031.73
2017-12-20T02:46:26.885Z,1031.75
2017-12-20T02:47:36.020Z,1031.71
2017-12-20T02:48:44.824Z,1031.72
2017-12-20T02:49:53.653Z,1031.72
2017-12-20T02:51:02.480Z,1031.69
2017-12-20T02:52:11.589Z,1031.7
2017-12-20T02:53:20.422Z,1031.7
2017-12-20T02:54:29.523Z,1031.74
2017-12-20T02:55:38.353Z,1031.7
2017-12-20T02:56:47.459Z,1031.71
2017-12-20T02:57:56.571Z,1031.69
2017-12-20T02:59:05.404Z,1031.64
2017-12-20T03:00:14.226Z,1031.67
2017-12-20T03:01:23.054Z,1031.65
2017-12-20T03:02:31.881Z,1031.67
2017-12-20T03:03:40.710Z,1031.62
2017-12-20T03:04:49.542Z,1031.62
2017-12-20T03:05:58.693Z,1031.59
2017-12-20T03:07:07.527Z,1031.58
2017-12-20T03:08:16.604Z,1031.57
2017-12-20T03:09:25.718Z,1031.62
2017-12-20T03:10:34.548Z,1031.63
2017-12-20T03:11:43.375Z,1031.56
2017-12-20T03:12:52.204Z,1031.6
2017-12-20T03:14:01.331Z,1031.58
2017-12-20T03:15:10.159Z,1031.56
2017-12-20T03:16:18.987Z,1031.55
2017-12-20T03:17:27.814Z,1031.53
2017-12-20T03:18:36.640Z,1031.54
2017-12-20T03:19:45.568Z,1031.52
2017-12-20T03:20:54.399Z,1031.54
2017-12-20T03:22:03.225Z,1031.53
2017-12-20T03:23:12.055Z,1031.51
2017-12-20T03:24:20.885Z,1031.44
2017-12-20T03:25:29.883Z,1031.45
2017-12-20T03:26:38.692Z,1031.46
2017-12-20T03:27:47.522Z,1031.41
2017-12-20T03:28:56.351Z,1031.41
2017-12-20T03:30:05.184Z,1031.38
2017-12-20T03:31:14.308Z,1031.39
2017-12-20T03:32:23.134Z,1031.36
2017-12-20T03:33:31.962Z,1031.38
2017-12-20T03:34:41.066Z,1031.4
2017-12-20T03:35:49.896Z,1031.37
2017-12-20T03:36:58.725Z,1031.36
2017-12-20T03:38:07.552Z,1031.33
2017-12-20T03:39:16.655Z,1031.34
2017-12-20T03:40:25.485Z,1031.33
2017-12-20T03:41:34.312Z,1031.3
2017-12-20T03:42:43.295Z,1031.3
2017-12-20T03:43:52.397Z,1031.29
2017-12-20T03:45:01.228Z,1031.31
2017-12-20T03:46:10.053Z,1031.26
2017-12-20T03:47:18.883Z,1031.3
2017-12-20T03:48:27.814Z,1031.32
2017-12-20T03:49:36.639Z,1031.3
2017-12-20T03:50:45.470Z,1031.25
2017-12-20T03:51:54.299Z,1031.27
2017-12-20T03:53:03.128Z,1031.2
2017-12-20T03:54:12.159Z,1031.15
2017-12-20T03:55:21.265Z,1031.17
2017-12-20T03:56:30.094Z,1031.13
2017-12-20T03:57:38.922Z,1031.19
2017-12-20T03:58:48.028Z,1031.24
2017-12-20T03:59:57.105Z,1031.23
2017-12-20T04:01:05.932Z,1031.25
2017-12-20T04:02:14.762Z,1031.2
2017-12-20T04:03:23.863Z,1031.21
2017-12-20T04:04:32.971Z,1031.14
2017-12-20T04:05:41.796Z,1031.17
2017-12-20T04:06:50.624Z,1031.17
2017-12-20T04:07:59.453Z,1031.15
2017-12-20T04:09:08.280Z,1031.14
2017-12-20T04:10:17.113Z,1031.11
2017-12-20T04:11:26.089Z,1031.07
2017-12-20T04:12:34.918Z,1031.09
2017-12-20T04:13:43.749Z,1031.12
2017-12-20T04:14:52.579Z,1031.05
2017-12-20T04:16:01.409Z,1031.1
2017-12-20T04:17:10.486Z,1031.16
2017-12-20T04:18:19.316Z,1031.11
2017-12-20T04:19:28.142Z,1031.11
2017-12-20T04:20:36.972Z,1031.14
2017-12-20T04:21:45.798Z,1031.13
2017-12-20T04:22:54.729Z,1031.14
2017-12-20T04:24:03.558Z,1031.11
2017-12-20T04:25:12.384Z,1031.12
2017-12-20T04:26:21.212Z,1031.1
2017-12-20T04:27:30.040Z,1031.11
2017-12-20T04:28:39.292Z,1031.17
2017-12-20T04:29:48.118Z,1031.15
2017-12-20T04:30:56.950Z,1031.17
2017-12-20T04:32:05.781Z,1031.18
2017-12-20T04:33:14.613Z,1031.21
2017-12-20T04:34:23.768Z,1031.18
2017-12-20T04:35:32.597Z,1031.19
2017-12-20T04:36:41.423Z,1031.1
2017-12-20T04:37:50.250Z,1031.16
2017-12-20T04:38:59.127Z,1031.2
2017-12-20T04:40:07.955Z,1031.19
2017-12-20T04:41:16.783Z,1031.16
2017-12-20T04:42:25.611Z,1031.18
2017-12-20T04:43:34.440Z,1031.19
2017-12-20T04:44:43.546Z,1031.24
2017-12-20T04:45:52.527Z,1031.22
2017-12-20T04:47:01.354Z,1031.26
2017-12-20T04:48:10.180Z,1031.21
2017-12-20T04:49:19.010Z,1031.27
2017-12-20T04:50:27.837Z,1031.26
2017-12-20T04:51:36.842Z,1031.29
2017-12-20T04:52:45.644Z,1031.32
2017-12-20T04:53:54.475Z,1031.35
2017-12-20T04:55:03.577Z,1031.35
2017-12-20T04:56:12.406Z,1031.38
2017-12-20T04:57:21.534Z,1031.39
2017-12-20T04:58:30.362Z,1031.42
2017-12-20T04:59:39.189Z,1031.45
2017-12-20T05:00:48.017Z,1031.44
2017-12-20T05:01:57.123Z,1031.45
2017-12-20T05:03:06.050Z,1031.51
2017-12-20T05:04:14.880Z,1031.47
2017-12-20T05:05:23.708Z,1031.48
2017-12-20T05:06:32.535Z,1031.49
2017-12-20T05:07:41.365Z,1031.48
2017-12-20T05:08:50.496Z,1031.47
2017-12-20T05:09:59.325Z,1031.45
2017-12-20T05:11:08.153Z,1031.46
2017-12-20T05:12:16.981Z,1031.45
2017-12-20T05:13:25.808Z,1031.42
2017-12-20T05:14:34.635Z,1031.45
2017-12-20T05:15:43.463Z,1031.44
2017-12-20T05:16:52.291Z,1031.45
2017-12-20T05:18:01.392Z,1031.42
2017-12-20T05:19:10.218Z,1031.4
2017-12-20T05:20:19.094Z,1031.39
2017-12-20T05:21:28.201Z,1031.44
2017-12-20T05:22:37.027Z,1031.4
2017-12-20T05:23:45.854Z,1031.39
2017-12-20T05:24:54.683Z,1031.44
2017-12-20T05:26:03.808Z,1031.36
2017-12-20T05:27:12.636Z,1031.38
2017-12-20T05:28:21.470Z,1031.4
2017-12-20T05:29:30.292Z,1031.38
2017-12-20T05:30:39.120Z,1031.33
2017-12-20T05:31:48.150Z,1031.36
2017-12-20T05:32:56.977Z,1031.44
2017-12-20T05:34:05.811Z,1031.39
2017-12-20T05:35:14.639Z,1031.46
2017-12-20T05:36:23.468Z,1031.44
2017-12-20T05:37:32.296Z,1031.43
2017-12-20T05:38:41.399Z,1031.42
2017-12-20T05:39:50.227Z,1031.42
2017-12-20T05:40:59.057Z,1031.46
2017-12-20T05:42:07.885Z,1031.49
2017-12-20T05:43:16.716Z,1031.44
2017-12-20T05:44:25.545Z,1031.46
2017-12-20T05:45:34.371Z,1031.54
2017-12-20T05:46:43.200Z,1031.57
2017-12-20T05:47:52.028Z,1031.59
2017-12-20T05:49:00.855Z,1031.62
2017-12-20T05:50:09.684Z,1031.62
2017-12-20T05:51:18.514Z,1031.59
2017-12-20T05:52:27.624Z,1031.63
2017-12-20T05:53:36.452Z,1031.66
2017-12-20T05:54:45.282Z,1031.64
2017-12-20T05:55:54.113Z,1031.68
2017-12-20T05:57:02.940Z,1031.66
2017-12-20T05:58:11.771Z,1031.75
2017-12-20T05:59:20.597Z,1031.72
2017-12-20T06:00:29.424Z,1031.71
2017-12-20T06:01:38.252Z,1031.74
2017-12-20T06:02:47.383Z,1031.73
2017-12-20T06:03:56.211Z,1031.7
2017-12-20T06:05:05.316Z,1031.74
2017-12-20T06:06:14.145Z,1031.72
2017-12-20T06:07:22.974Z,1031.7
2017-12-20T06:08:32.160Z,1031.77
2017-12-20T06:09:41.261Z,1031.8
2017-12-20T06:10:50.091Z,1031.77
2017-12-20T06:11:58.921Z,1031.82
2017-12-20T06:13:07.752Z,1031.81
2017-12-20T06:14:16.631Z,1031.81
2017-12-20T06:15:25.461Z,1031.82
2017-12-20T06:16:34.291Z,1031.83
2017-12-20T06:17:43.395Z,1031.87
2017-12-20T06:18:52.501Z,1031.83
2017-12-20T06:20:01.429Z,1031.81
2017-12-20T06:21:10.259Z,1031.81
2017-12-20T06:22:19.088Z,1031.86
2017-12-20T06:23:27.916Z,1031.92
2017-12-20T06:24:36.745Z,1031.93
2017-12-20T06:25:45.576Z,1031.92
2017-12-20T06:26:54.692Z,1031.93
2017-12-20T06:28:03.534Z,1031.97
2017-12-20T06:29:12.364Z,1031.95
2017-12-20T06:30:21.196Z,1032
2017-12-20T06:31:30.024Z,1032.02
2017-12-20T06:32:38.852Z,1032.01
2017-12-20T06:33:47.688Z,1031.97
2017-12-20T06:34:56.789Z,1032.04
2017-12-20T06:36:05.618Z,1032.1
2017-12-20T06:37:14.449Z,1032.09
2017-12-20T06:38:23.275Z,1032.09
2017-12-20T06:39:32.104Z,1032.07
2017-12-20T06:40:40.932Z,1032.08
2017-12-20T06:41:49.759Z,1032.08
2017-12-20T06:42:58.587Z,1032.06
2017-12-20T06:44:07.416Z,1032.09
2017-12-20T06:45:16.241Z,1032.1
2017-12-20T06:46:25.349Z,1032.08
2017-12-20T06:47:34.176Z,1032.06
2017-12-20T06:48:43.004Z,1032.07
2017-12-20T06:49:52.106Z,1032.08
2017-12-20T06:51:00.931Z,1032.08
2017-12-20T06:52:09.761Z,1032.09
2017-12-20T06:53:18.588Z,1032.03
2017-12-20T06:54:27.415Z,1032.04
2017-12-20T06:55:36.244Z,1032.06
2017-12-20T06:56:45.078Z,1032.07
2017-12-20T06:57:53.909Z,1032.1
2017-12-20T06:59:03.014Z,1032.08
2017-12-20T07:00:11.844Z,1032.05
2017-12-20T07:01:20.676Z,1032.06
2017-12-20T07:02:29.825Z,1032.08
2017-12-20T07:03:38.654Z,1032.09
2017-12-20T07:04:47.483Z,1032.14
2017-12-20T07:05:56.594Z,1032.1
2017-12-20T07:07:05.424Z,1032.13
2017-12-20T07:08:14.401Z,1032.17
2017-12-20T07:09:23.228Z,1032.17
2017-12-20T07:10:32.060Z,1032.15
2017-12-20T07:11:40.888Z,1032.13
2017-12-20T07:12:49.718Z,1032.14
2017-12-20T07:13:58.546Z,1032.15
2017-12-20T07:15:07.373Z,1032.18
2017-12-20T07:16:16.203Z,1032.18
2017-12-20T07:17:25.032Z,1032.22
2017-12-20T07:18:33.862Z,1032.23
2017-12-20T07:19:42.889Z,1032.27
2017-12-20T07:20:51.719Z,1032.29
2017-12-20T07:22:00.548Z,1032.27
2017-12-20T07:23:09.378Z,1032.26
2017-12-20T07:24:18.205Z,1032.23
2017-12-20T07:25:27.334Z,1032.24
2017-12-20T07:26:36.166Z,1032.27
2017-12-20T07:27:45.128Z,1032.32
2017-12-20T07:28:54.189Z,1032.33
2017-12-20T07:30:03.208Z,1032.36
2017-12-20T07:31:12.162Z,1032.39
2017-12-20T07:32:21.149Z,1032.42
2017-12-20T07:33:30.511Z,1032.41
2017-12-20T07:34:39.418Z,1032.41
2017-12-20T07:35:48.439Z,1032.46
2017-12-20T07:36:58.173Z,1032.47
2017-12-20T07:38:07.248Z,1032.5
2017-12-20T07:39:16.588Z,1032.47
2017-12-20T07:40:25.465Z,1032.48
2017-12-20T07:41:34.514Z,1032.49
2017-12-20T07:42:43.825Z,1032.5
2017-12-20T07:43:53.416Z,1032.48
2017-12-20T07:45:02.845Z,1032.48
2017-12-20T07:46:11.768Z,1032.48
2017-12-20T07:47:20.818Z,1032.46
2017-12-20T07:48:30.106Z,1032.43
2017-12-20T07:49:39.363Z,1032.45
2017-12-20T07:50:48.237Z,1032.42
2017-12-20T07:51:57.277Z,1032.43
2017-12-20T07:53:06.127Z,1032.44
2017-12-20T07:54:15.077Z,1032.41
2017-12-20T07:55:23.921Z,1032.4
2017-12-20T07:56:32.821Z,1032.39
2017-12-20T07:57:41.907Z,1032.36
2017-12-20T07:58:50.735Z,1032.43
2017-12-20T07:59:59.817Z,1032.43
2017-12-20T08:01:08.646Z,1032.43
2017-12-20T08:02:17.474Z,1032.46
2017-12-20T08:03:26.302Z,1032.45
2017-12-20T08:04:35.129Z,1032.44
2017-12-20T08:05:44.008Z,1032.45
2017-12-20T08:06:52.836Z,1032.44
2017-12-20T08:08:01.665Z,1032.44
2017-12-20T08:09:10.494Z,1032.43
2017-12-20T08:10:19.321Z,1032.41
2017-12-20T08:11:28.450Z,1032.4
2017-12-20T08:12:37.277Z,1032.41
2017-12-20T08:13:46.105Z,1032.39
2017-12-20T08:14:54.934Z,1032.43
2017-12-20T08:16:03.761Z,1032.41
2017-12-20T08:17:12.588Z,1032.42
2017-12-20T08:18:21.416Z,1032.43
2017-12-20T08:19:30.244Z,1032.49
2017-12-20T08:20:39.076Z,1032.48
2017-12-20T08:21:48.188Z,1032.47
2017-12-20T08:22:57.015Z,1032.54
2017-12-20T08:24:05.846Z,1032.48
2017-12-20T08:25:14.674Z,1032.51
2017-12-20T08:26:23.503Z,1032.5
2017-12-20T08:27:32.336Z,1032.51
2017-12-20T08:28:41.422Z,1032.49
2017-12-20T08:29:50.513Z,1032.49
2017-12-20T08:30:59.352Z,1032.51
2017-12-20T08:32:08.184Z,1032.48
2017-12-20T08:33:17.006Z,1032.51
2017-12-20T08:34:25.835Z,1032.52
2017-12-20T08:35:34.665Z,1032.53
2017-12-20T08:36:43.499Z,1032.51
2017-12-20T08:37:52.332Z,1032.5
2017-12-20T08:39:01.442Z,1032.56
2017-12-20T08:40:10.522Z,1032.6
2017-12-20T08:41:19.354Z,1032.61
2017-12-20T08:42:28.183Z,1032.53
2017-12-20T08:43:37.011Z,1032.56
2017-12-20T08:44:45.840Z,1032.58
2017-12-20T08:45:54.769Z,1032.57
2017-12-20T08:47:03.598Z,1032.62
2017-12-20T08:48:12.427Z,1032.61
2017-12-20T08:49:21.257Z,1032.64
2017-12-20T08:50:30.086Z,1032.67
2017-12-20T08:51:39.314Z,1032.67
2017-12-20T08:52:48.143Z,1032.65
2017-12-20T08:53:56.970Z,1032.68
2017-12-20T08:55:05.799Z,1032.65
2017-12-20T08:56:14.625Z,1032.63
2017-12-20T08:57:23.754Z,1032.64
2017-12-20T08:58:32.584Z,1032.65
2017-12-20T08:59:41.414Z,1032.55
2017-12-20T09:00:50.241Z,1032.56
2017-12-20T09:01:59.070Z,1032.61
2017-12-20T09:03:08.055Z,1032.7
2017-12-20T09:04:16.882Z,1032.7
2017-12-20T09:05:25.710Z,1032.69
2017-12-20T09:06:34.539Z,1032.69
2017-12-20T09:07:43.646Z,1032.64
2017-12-20T09:08:52.525Z,1032.67
2017-12-20T09:10:01.350Z,1032.67
2017-12-20T09:11:10.178Z,1032.71
2017-12-20T09:12:19.007Z,1032.69
2017-12-20T09:13:27.837Z,1032.74
2017-12-20T09:14:36.668Z,1032.77
2017-12-20T09:15:45.496Z,1032.77
2017-12-20T09:16:54.327Z,1032.77
2017-12-20T09:18:03.155Z,1032.78
2017-12-20T09:19:11.984Z,1032.82
2017-12-20T09:20:21.116Z,1032.81
2017-12-20T09:21:30.224Z,1032.87
2017-12-20T09:22:39.053Z,1032.89
2017-12-20T09:23:47.883Z,1032.87
2017-12-20T09:24:56.711Z,1032.9
2017-12-20T09:26:05.592Z,1032.94
2017-12-20T09:27:14.418Z,1032.93
2017-12-20T09:28:23.244Z,1032.92
2017-12-20T09:29:32.072Z,1032.9
2017-12-20T09:30:40.900Z,1032.9
2017-12-20T09:31:49.781Z,1032.92
2017-12-20T09:32:58.613Z,1032.91
2017-12-20T09:34:07.437Z,1032.94
2017-12-20T09:35:16.266Z,1032.92
2017-12-20T09:36:25.096Z,1032.96
2017-12-20T09:37:34.030Z,1032.95
2017-12-20T09:38:43.141Z,1032.99
2017-12-20T09:39:51.975Z,1033.03
2017-12-20T09:41:00.805Z,1032.97
2017-12-20T09:42:09.634Z,1033.01
2017-12-20T09:43:18.862Z,1032.97
2017-12-20T09:44:27.691Z,1032.93
2017-12-20T09:45:36.520Z,1032.98
2017-12-20T09:46:45.347Z,1033
2017-12-20T09:47:54.176Z,1032.95
2017-12-20T09:49:03.004Z,1032.96
2017-12-20T09:50:11.834Z,1032.98
2017-12-20T09:51:20.663Z,1032.98
2017-12-20T09:52:29.491Z,1032.96
2017-12-20T09:53:38.324Z,1032.93
2017-12-20T09:54:47.250Z,1032.91
2017-12-20T09:55:56.081Z,1032.88
2017-12-20T09:57:04.909Z,1032.86
2017-12-20T09:58:13.740Z,1032.91
2017-12-20T09:59:22.568Z,1032.89
2017-12-20T10:00:31.498Z,1032.96
2017-12-20T10:01:40.329Z,1032.93
2017-12-20T10:02:49.158Z,1032.93
2017-12-20T10:03:57.989Z,1032.93
2017-12-20T10:05:06.818Z,1032.97
2017-12-20T10:06:15.798Z,1032.94
2017-12-20T10:07:24.626Z,1032.96
2017-12-20T10:08:33.730Z,1032.98
2017-12-20T10:09:42.559Z,1032.98
2017-12-20T10:10:51.388Z,1032.97
2017-12-20T10:12:00.267Z,1032.99
2017-12-20T10:13:09.095Z,1033.03
2017-12-20T10:14:17.924Z,1033
2017-12-20T10:15:26.755Z,1032.97
2017-12-20T10:16:35.588Z,1033.01
2017-12-20T10:17:44.463Z,1032.98
2017-12-20T10:18:53.293Z,1032.97
2017-12-20T10:20:02.123Z,1032.96
2017-12-20T10:21:10.961Z,1032.91
2017-12-20T10:22:19.793Z,1032.93
2017-12-20T10:23:29.045Z,1032.91
2017-12-20T10:24:37.877Z,1032.9
2017-12-20T10:25:46.978Z,1032.86
2017-12-20T10:26:55.809Z,1032.89
2017-12-20T10:28:04.639Z,1032.84
2017-12-20T10:29:13.521Z,1032.83
2017-12-20T10:30:22.351Z,1032.8
2017-12-20T10:31:31.179Z,1032.79
2017-12-20T10:32:40.009Z,1032.84
2017-12-20T10:33:48.841Z,1032.83
2017-12-20T10:34:58.069Z,1032.83
2017-12-20T10:36:06.899Z,1032.82
2017-12-20T10:37:15.728Z,1032.76
2017-12-20T10:38:24.836Z,1032.76
2017-12-20T10:39:33.937Z,1032.74
2017-12-20T10:40:42.821Z,1032.77
2017-12-20T10:41:51.648Z,1032.8
2017-12-20T10:43:00.477Z,1032.8
2017-12-20T10:44:09.306Z,1032.76
2017-12-20T10:45:18.137Z,1032.8
2017-12-20T10:46:27.369Z,1032.8
2017-12-20T10:47:36.204Z,1032.8
2017-12-20T10:48:45.039Z,1032.75
2017-12-20T10:49:53.864Z,1032.76
2017-12-20T10:51:02.693Z,1032.78
2017-12-20T10:52:11.690Z,1032.76
2017-12-20T10:53:20.774Z,1032.73
2017-12-20T10:54:29.603Z,1032.68
2017-12-20T10:55:38.434Z,1032.64
2017-12-20T10:56:47.539Z,1032.57
2017-12-20T10:57:56.369Z,1032.57
2017-12-20T10:59:05.478Z,1032.62
2017-12-20T11:00:14.300Z,1032.57
2017-12-20T11:01:23.128Z,1032.58
2017-12-20T11:02:31.955Z,1032.64
2017-12-20T11:03:40.833Z,1032.61
2017-12-20T11:04:49.663Z,1032.6
2017-12-20T11:05:58.763Z,1032.59
2017-12-20T11:07:07.596Z,1032.59
2017-12-20T11:08:16.708Z,1032.56
2017-12-20T11:09:25.684Z,1032.51
2017-12-20T11:10:34.515Z,1032.53
2017-12-20T11:11:43.343Z,1032.52
2017-12-20T11:12:52.453Z,1032.57
2017-12-20T11:14:01.282Z,1032.55
2017-12-20T11:15:10.261Z,1032.53
2017-12-20T11:16:19.092Z,1032.56
2017-12-20T11:17:27.923Z,1032.57
2017-12-20T11:18:36.751Z,1032.59
2017-12-20T11:19:45.582Z,1032.55
2017-12-20T11:20:54.709Z,1032.54
2017-12-20T11:22:03.539Z,1032.52
2017-12-20T11:23:12.370Z,1032.51
2017-12-20T11:24:21.200Z,1032.53
2017-12-20T11:25:30.030Z,1032.52
2017-12-20T11:26:39.009Z,1032.49
2017-12-20T11:27:47.837Z,1032.48
2017-12-20T11:28:56.670Z,1032.52
2017-12-20T11:30:05.501Z,1032.49
2017-12-20T11:31:14.331Z,1032.49
2017-12-20T11:32:23.214Z,1032.45
2017-12-20T11:33:32.318Z,1032.48
2017-12-20T11:34:41.154Z,1032.45
2017-12-20T11:35:50.258Z,1032.39
2017-12-20T11:36:59.086Z,1032.43
2017-12-20T11:38:08.066Z,1032.39
2017-12-20T11:39:16.896Z,1032.4
2017-12-20T11:40:25.724Z,1032.37
2017-12-20T11:41:34.554Z,1032.4
2017-12-20T11:42:43.383Z,1032.36
2017-12-20T11:43:52.538Z,1032.43
2017-12-20T11:45:01.369Z,1032.42
2017-12-20T11:46:10.196Z,1032.45
2017-12-20T11:47:19.298Z,1032.46
2017-12-20T11:48:28.129Z,1032.44
2017-12-20T11:49:37.060Z,1032.44
2017-12-20T11:50:45.891Z,1032.44
2017-12-20T11:51:54.992Z,1032.42
2017-12-20T11:53:03.820Z,1032.41
2017-12-20T11:54:12.650Z,1032.42
2017-12-20T11:55:21.853Z,1032.37
2017-12-20T11:56:30.682Z,1032.38
2017-12-20T11:57:39.787Z,1032.35
2017-12-20T11:58:48.615Z,1032.32
2017-12-20T11:59:57.547Z,1032.31
2017-12-20T12:01:06.652Z,1032.34
2017-12-20T12:02:15.482Z,1032.35
2017-12-20T12:03:24.310Z,1032.34
2017-12-20T12:04:33.137Z,1032.31
2017-12-20T12:05:41.967Z,1032.29
2017-12-20T12:06:50.846Z,1032.31
2017-12-20T12:07:59.726Z,1032.31
2017-12-20T12:09:08.559Z,1032.25
2017-12-20T12:10:17.391Z,1032.25
2017-12-20T12:11:26.221Z,1032.27
2017-12-20T12:12:35.350Z,1032.27
2017-12-20T12:13:44.181Z,1032.26
2017-12-20T12:14:53.013Z,1032.29
2017-12-20T12:16:01.945Z,1032.31
2017-12-20T12:17:11.324Z,1032.27
2017-12-20T12:18:20.204Z,1032.24
2017-12-20T12:19:29.345Z,1032.2
2017-12-20T12:20:38.174Z,1032.18
2017-12-20T12:21:47.005Z,1032.21
2017-12-20T12:22:55.833Z,1032.21
2017-12-20T12:24:04.664Z,1032.19
2017-12-20T12:25:13.495Z,1032.25
2017-12-20T12:26:22.594Z,1032.28
2017-12-20T12:27:31.425Z,1032.26
2017-12-20T12:28:40.256Z,1032.3
2017-12-20T12:29:49.239Z,1032.3
2017-12-20T12:30:58.072Z,1032.3
2017-12-20T12:32:06.906Z,1032.32
2017-12-20T12:33:15.734Z,1032.31
2017-12-20T12:34:24.566Z,1032.3
2017-12-20T12:35:33.719Z,1032.33
2017-12-20T12:36:42.555Z,1032.33
2017-12-20T12:37:51.380Z,1032.32
2017-12-20T12:39:00.213Z,1032.32
2017-12-20T12:40:09.041Z,1032.32
2017-12-20T12:41:18.170Z,1032.34
2017-12-20T12:42:27.000Z,1032.28
2017-12-20T12:43:35.833Z,1032.28
2017-12-20T12:44:44.939Z,1032.28
2017-12-20T12:45:53.771Z,1032.26
2017-12-20T12:47:02.702Z,1032.25
2017-12-20T12:48:11.802Z,1032.29
2017-12-20T12:49:20.637Z,1032.26
2017-12-20T12:50:29.464Z,1032.33
2017-12-20T12:51:38.294Z,1032.32
2017-12-20T12:52:47.273Z,1032.34
2017-12-20T12:53:56.102Z,1032.3
2017-12-20T12:55:05.208Z,1032.28
2017-12-20T12:56:14.042Z,1032.33
2017-12-20T12:57:22.873Z,1032.27
2017-12-20T12:58:31.854Z,1032.3
2017-12-20T12:59:40.684Z,1032.29
2017-12-20T13:00:49.514Z,1032.26
2017-12-20T13:01:58.344Z,1032.29
2017-12-20T13:03:07.172Z,1032.33
2017-12-20T13:04:16.103Z,1032.36
2017-12-20T13:05:24.932Z,1032.35
2017-12-20T13:06:33.762Z,1032.33
2017-12-20T13:07:42.595Z,1032.3
2017-12-20T13:08:51.425Z,1032.32
2017-12-20T13:10:00.256Z,1032.26
2017-12-20T13:11:09.084Z,1032.29
2017-12-20T13:12:17.917Z,1032.21
2017-12-20T13:13:26.745Z,1032.22
2017-12-20T13:14:35.577Z,1032.13
2017-12-20T13:15:44.408Z,1032.08
2017-12-20T13:16:53.246Z,1032.1
2017-12-20T13:18:02.081Z,1032.11
2017-12-20T13:19:10.909Z,1032.14
2017-12-20T13:20:19.749Z,1032.16
2017-12-20T13:21:28.638Z,1032.16
2017-12-20T13:22:37.468Z,1032.12
2017-12-20T13:23:46.298Z,1032.09
2017-12-20T13:24:55.130Z,1032.09
2017-12-20T13:26:03.960Z,1032.14
2017-12-20T13:27:13.093Z,1032.14
2017-12-20T13:28:21.922Z,1032.11
2017-12-20T13:29:31.030Z,1032.09
2017-12-20T13:30:39.860Z,1032.06
2017-12-20T13:31:48.692Z,1032.05
2017-12-20T13:32:57.674Z,1032.07
2017-12-20T13:34:06.788Z,1032.15
2017-12-20T13:35:15.619Z,1032.14
2017-12-20T13:36:24.451Z,1032.15
2017-12-20T13:37:33.282Z,1032.16
2017-12-20T13:38:42.264Z,1032.2
2017-12-20T13:39:51.091Z,1032.22
2017-12-20T13:40:59.922Z,1032.18
2017-12-20T13:42:08.754Z,1032.16
2017-12-20T13:43:17.864Z,1032.15
2017-12-20T13:44:26.746Z,1032.08
2017-12-20T13:45:35.576Z,1032.08
2017-12-20T13:46:44.414Z,1032.02
2017-12-20T13:47:53.264Z,1032.03
2017-12-20T13:49:02.100Z,1032.05
2017-12-20T13:50:11.030Z,1031.98
2017-12-20T13:51:19.860Z,1032
2017-12-20T13:52:28.968Z,1032.07
2017-12-20T13:53:37.799Z,1032.09
2017-12-20T13:54:46.908Z,1032.14
2017-12-20T13:55:55.790Z,1032.17
2017-12-20T13:57:04.623Z,1032.18